Sunday, October 22, 2017, 5:14 PM EDT
Back to Local

KPNE, N.e. Philadelphia Airport

Location: Philadelphia, PA, United States Lat: 40.083
Local Time: 5:14 PM EDT (21:14 GMT) Lon: -75.017
Time Zone: US/Eastern Elev: 121 ft

Show me the last for .
Show Coded

Time T Td Feel RH Dir Speed Gust Alt SLP Vis Weather Sky Remarks
2017-10-22 16:54 75 51 77 43 Variable 7 - 30.35 30.35 10 CLR None
2017-10-22 15:54 76 47 - 35 160° 7 - 30.36 30.36 10 CLR None
2017-10-22 14:54 76 49 - 38 - Calm - 30.37 30.37 10 CLR None
2017-10-22 13:54 75 49 - 39 Variable 3 - 30.39 30.38 10 CLR 6-hr Min Temp (2pm): 48.9°F
6-hr Max Temp (2pm): 75.9°F
2017-10-22 12:54 74 50 76 42 Variable 5 - 30.41 30.40 10 CLR None
2017-10-22 11:54 71 51 76 49 120° 5 - 30.42 30.42 10 CLR None
2017-10-22 10:54 67 52 - 58 110° 5 - 30.43 30.42 9 CLR None
2017-10-22 09:54 62 52 - 69 - Calm - 30.43 30.43 8 CLR None
2017-10-22 08:54 57 51 - 80 - Calm - 30.44 30.44 8 CLR None
2017-10-22 07:54 49 45 - 86 - Calm - 30.42 30.42 7 CLR 6-hr Min Temp (8am): 46.9°F
6-hr Max Temp (8am): 51.1°F
2017-10-22 06:54 48 45 - 89 - Calm - 30.40 30.40 7 CLR None
2017-10-22 05:54 49 46 - 89 - Calm - 30.39 30.39 8 CLR None
2017-10-22 04:54 49 45 - 86 - Calm - 30.38 30.37 8 CLR None
2017-10-22 03:54 50 46 - 86 - Calm - 30.38 30.37 9 CLR None
2017-10-22 02:54 50 46 - 86 - Calm - 30.37 30.37 8 CLR None
2017-10-22 01:54 50 46 49 86 50° 3 - 30.37 30.37 8 CLR 6-hr Min Temp (2am): 50.0°F
6-hr Max Temp (2am): 63.0°F
2017-10-22 00:54 53 48 - 82 - Calm - 30.38 30.38 9 CLR 24-hr Min Temp (1am): 48.0°F
24-hr Max Temp (1am): 80.1°F
2017-10-21 23:54 55 48 - 77 - Calm - 30.38 30.38 10 CLR None
2017-10-21 22:54 56 48 - 74 - Calm - 30.38 30.38 10 CLR None
2017-10-21 21:54 58 47 - 66 - Calm - 30.38 30.38 10 CLR None
2017-10-21 20:54 60 47 - 61 - Calm - 30.38 30.37 10 CLR None
2017-10-21 19:54 62 48 - 60 - Calm - 30.36 30.36 10 CLR 6-hr Min Temp (8pm): 62.1°F
6-hr Max Temp (8pm): 80.1°F
2017-10-21 18:54 65 47 - 52 - Calm - 30.35 30.35 10 CLR None
2017-10-21 17:54 71 44 - 37 160° 3 - 30.34 30.34 10 CLR None

Support USWX by starting your Amazon purchase here.